sensor_id;sensor_type;location;lat;lon;timestamp;P1;durP1;ratioP1;P2;durP2;ratioP2
35644;SDS011;21764;52.042;6.830;2023-11-22T00:01:13;58.03;;;24.70;;
35644;SDS011;21764;52.042;6.830;2023-11-22T00:06:15;62.05;;;27.83;;
35644;SDS011;21764;52.042;6.830;2023-11-22T00:11:17;58.75;;;26.58;;
35644;SDS011;21764;52.042;6.830;2023-11-22T00:16:18;53.40;;;26.40;;
35644;SDS011;21764;52.042;6.830;2023-11-22T00:21:19;58.40;;;26.92;;
35644;SDS011;21764;52.042;6.830;2023-11-22T00:26:20;64.53;;;25.95;;
35644;SDS011;21764;52.042;6.830;2023-11-22T00:31:21;56.08;;;26.05;;
35644;SDS011;21764;52.042;6.830;2023-11-22T00:36:22;56.15;;;27.40;;
35644;SDS011;21764;52.042;6.830;2023-11-22T00:41:23;54.42;;;26.30;;
35644;SDS011;21764;52.042;6.830;2023-11-22T00:46:24;60.95;;;27.60;;
35644;SDS011;21764;52.042;6.830;2023-11-22T00:51:25;58.05;;;27.00;;
35644;SDS011;21764;52.042;6.830;2023-11-22T00:56:27;61.45;;;28.00;;
35644;SDS011;21764;52.042;6.830;2023-11-22T01:01:28;58.20;;;29.55;;
35644;SDS011;21764;52.042;6.830;2023-11-22T01:06:29;55.22;;;28.17;;
35644;SDS011;21764;52.042;6.830;2023-11-22T01:11:32;61.17;;;28.52;;
35644;SDS011;21764;52.042;6.830;2023-11-22T01:16:33;57.35;;;28.10;;
35644;SDS011;21764;52.042;6.830;2023-11-22T01:21:36;66.47;;;28.42;;
35644;SDS011;21764;52.042;6.830;2023-11-22T01:26:38;54.38;;;27.33;;
35644;SDS011;21764;52.042;6.830;2023-11-22T01:31:40;65.50;;;29.63;;
35644;SDS011;21764;52.042;6.830;2023-11-22T01:36:43;56.80;;;28.77;;
35644;SDS011;21764;52.042;6.830;2023-11-22T01:41:44;59.65;;;28.05;;
35644;SDS011;21764;52.042;6.830;2023-11-22T01:46:46;59.20;;;27.30;;
35644;SDS011;21764;52.042;6.830;2023-11-22T01:51:47;53.13;;;25.70;;
35644;SDS011;21764;52.042;6.830;2023-11-22T01:56:48;56.65;;;27.77;;
35644;SDS011;21764;52.042;6.830;2023-11-22T02:01:51;53.38;;;26.35;;
35644;SDS011;21764;52.042;6.830;2023-11-22T02:06:52;59.42;;;26.33;;
35644;SDS011;21764;52.042;6.830;2023-11-22T02:11:53;61.40;;;26.52;;
35644;SDS011;21764;52.042;6.830;2023-11-22T02:16:55;67.18;;;24.65;;
35644;SDS011;21764;52.042;6.830;2023-11-22T02:21:56;59.83;;;26.05;;
35644;SDS011;21764;52.042;6.830;2023-11-22T02:26:57;67.05;;;25.67;;
35644;SDS011;21764;52.042;6.830;2023-11-22T02:31:58;58.35;;;23.83;;
35644;SDS011;21764;52.042;6.830;2023-11-22T02:37:00;63.20;;;25.38;;
35644;SDS011;21764;52.042;6.830;2023-11-22T02:42:01;58.10;;;24.52;;
35644;SDS011;21764;52.042;6.830;2023-11-22T02:47:05;67.93;;;26.25;;
35644;SDS011;21764;52.042;6.830;2023-11-22T02:52:06;58.63;;;25.13;;
35644;SDS011;21764;52.042;6.830;2023-11-22T02:57:10;62.00;;;27.52;;
35644;SDS011;21764;52.042;6.830;2023-11-22T03:02:12;55.08;;;24.90;;
35644;SDS011;21764;52.042;6.830;2023-11-22T03:07:15;69.60;;;27.30;;
35644;SDS011;21764;52.042;6.830;2023-11-22T03:12:17;67.20;;;27.30;;
35644;SDS011;21764;52.042;6.830;2023-11-22T03:17:20;70.82;;;25.67;;
35644;SDS011;21764;52.042;6.830;2023-11-22T03:22:23;61.67;;;26.65;;
35644;SDS011;21764;52.042;6.830;2023-11-22T03:27:25;65.88;;;26.67;;
35644;SDS011;21764;52.042;6.830;2023-11-22T03:32:30;63.22;;;23.98;;
35644;SDS011;21764;52.042;6.830;2023-11-22T03:37:37;68.05;;;26.08;;
35644;SDS011;21764;52.042;6.830;2023-11-22T03:42:38;67.80;;;25.83;;
35644;SDS011;21764;52.042;6.830;2023-11-22T03:47:51;83.70;;;29.48;;
35644;SDS011;21764;52.042;6.830;2023-11-22T03:53:00;78.85;;;29.98;;
35644;SDS011;21764;52.042;6.830;2023-11-22T03:58:02;75.07;;;27.52;;
35644;SDS011;21764;52.042;6.830;2023-11-22T04:03:06;81.03;;;29.60;;
35644;SDS011;21764;52.042;6.830;2023-11-22T04:08:08;78.00;;;30.88;;
35644;SDS011;21764;52.042;6.830;2023-11-22T04:13:09;79.60;;;30.73;;
35644;SDS011;21764;52.042;6.830;2023-11-22T04:18:12;76.18;;;29.77;;
35644;SDS011;21764;52.042;6.830;2023-11-22T04:23:13;86.22;;;30.10;;
35644;SDS011;21764;52.042;6.830;2023-11-22T04:28:15;74.55;;;28.83;;
35644;SDS011;21764;52.042;6.830;2023-11-22T04:33:18;74.03;;;28.60;;
35644;SDS011;21764;52.042;6.830;2023-11-22T04:38:22;70.68;;;27.35;;
35644;SDS011;21764;52.042;6.830;2023-11-22T04:43:26;70.18;;;28.05;;
35644;SDS011;21764;52.042;6.830;2023-11-22T04:48:27;63.13;;;25.65;;
35644;SDS011;21764;52.042;6.830;2023-11-22T04:53:28;68.97;;;26.33;;
35644;SDS011;21764;52.042;6.830;2023-11-22T04:58:29;57.70;;;25.02;;
35644;SDS011;21764;52.042;6.830;2023-11-22T05:03:31;56.13;;;23.48;;
35644;SDS011;21764;52.042;6.830;2023-11-22T05:08:32;60.65;;;25.50;;
35644;SDS011;21764;52.042;6.830;2023-11-22T05:13:34;64.88;;;25.23;;
35644;SDS011;21764;52.042;6.830;2023-11-22T05:18:36;57.80;;;23.83;;
35644;SDS011;21764;52.042;6.830;2023-11-22T05:23:43;56.67;;;23.98;;
35644;SDS011;21764;52.042;6.830;2023-11-22T05:28:54;67.30;;;24.02;;
35644;SDS011;21764;52.042;6.830;2023-11-22T05:33:57;59.50;;;25.15;;
35644;SDS011;21764;52.042;6.830;2023-11-22T05:38:59;63.50;;;24.65;;
35644;SDS011;21764;52.042;6.830;2023-11-22T05:44:00;64.82;;;26.52;;
35644;SDS011;21764;52.042;6.830;2023-11-22T05:49:08;68.32;;;29.42;;
35644;SDS011;21764;52.042;6.830;2023-11-22T05:54:25;61.60;;;25.65;;
35644;SDS011;21764;52.042;6.830;2023-11-22T06:04:58;104.13;;;37.97;;
35644;SDS011;21764;52.042;6.830;2023-11-22T06:10:18;88.55;;;30.77;;
35644;SDS011;21764;52.042;6.830;2023-11-22T06:15:19;134.45;;;37.92;;
35644;SDS011;21764;52.042;6.830;2023-11-22T06:20:26;254.52;;;35.97;;
35644;SDS011;21764;52.042;6.830;2023-11-22T06:25:34;194.68;;;29.67;;
35644;SDS011;21764;52.042;6.830;2023-11-22T06:31:11;296.05;;;32.67;;
35644;SDS011;21764;52.042;6.830;2023-11-22T06:36:36;259.17;;;35.90;;
35644;SDS011;21764;52.042;6.830;2023-11-22T06:41:44;246.40;;;28.17;;
35644;SDS011;21764;52.042;6.830;2023-11-22T06:46:49;263.33;;;39.88;;
35644;SDS011;21764;52.042;6.830;2023-11-22T06:56:51;276.90;;;51.40;;
35644;SDS011;21764;52.042;6.830;2023-11-22T07:01:53;204.20;;;45.60;;
35644;SDS011;21764;52.042;6.830;2023-11-22T07:06:56;152.95;;;39.95;;
35644;SDS011;21764;52.042;6.830;2023-11-22T07:11:57;149.55;;;37.25;;
35644;SDS011;21764;52.042;6.830;2023-11-22T07:17:00;110.45;;;40.85;;
35644;SDS011;21764;52.042;6.830;2023-11-22T07:22:01;104.82;;;36.25;;
35644;SDS011;21764;52.042;6.830;2023-11-22T07:27:05;139.20;;;36.42;;
35644;SDS011;21764;52.042;6.830;2023-11-22T07:32:17;165.23;;;39.20;;
35644;SDS011;21764;52.042;6.830;2023-11-22T07:42:24;92.53;;;30.10;;
35644;SDS011;21764;52.042;6.830;2023-11-22T07:47:25;49.33;;;24.65;;
35644;SDS011;21764;52.042;6.830;2023-11-22T07:52:29;37.25;;;22.60;;
35644;SDS011;21764;52.042;6.830;2023-11-22T07:57:30;33.92;;;21.08;;
35644;SDS011;21764;52.042;6.830;2023-11-22T08:02:43;32.08;;;21.02;;
35644;SDS011;21764;52.042;6.830;2023-11-22T08:07:51;36.85;;;22.80;;
35644;SDS011;21764;52.042;6.830;2023-11-22T08:12:52;39.40;;;24.38;;
35644;SDS011;21764;52.042;6.830;2023-11-22T08:17:56;39.63;;;25.05;;
35644;SDS011;21764;52.042;6.830;2023-11-22T08:22:57;38.30;;;24.23;;
35644;SDS011;21764;52.042;6.830;2023-11-22T08:27:58;37.83;;;24.77;;
35644;SDS011;21764;52.042;6.830;2023-11-22T08:33:01;37.85;;;24.70;;
35644;SDS011;21764;52.042;6.830;2023-11-22T08:38:02;27.05;;;19.55;;
35644;SDS011;21764;52.042;6.830;2023-11-22T08:43:05;26.38;;;19.58;;
35644;SDS011;21764;52.042;6.830;2023-11-22T08:48:06;20.90;;;14.90;;
35644;SDS011;21764;52.042;6.830;2023-11-22T08:53:07;26.77;;;14.88;;
35644;SDS011;21764;52.042;6.830;2023-11-22T08:58:09;24.70;;;16.17;;
35644;SDS011;21764;52.042;6.830;2023-11-22T09:03:11;21.90;;;15.95;;
35644;SDS011;21764;52.042;6.830;2023-11-22T09:08:13;23.20;;;15.45;;
35644;SDS011;21764;52.042;6.830;2023-11-22T09:13:15;24.90;;;15.38;;
35644;SDS011;21764;52.042;6.830;2023-11-22T11:47:11;12.52;;;7.65;;
35644;SDS011;21764;52.042;6.830;2023-11-22T11:52:12;16.42;;;9.30;;
35644;SDS011;21764;52.042;6.830;2023-11-22T11:57:19;19.15;;;7.95;;
35644;SDS011;21764;52.042;6.830;2023-11-22T12:02:21;22.88;;;9.43;;
35644;SDS011;21764;52.042;6.830;2023-11-22T12:07:22;15.88;;;8.77;;
35644;SDS011;21764;52.042;6.830;2023-11-22T12:12:23;15.85;;;9.60;;
35644;SDS011;21764;52.042;6.830;2023-11-22T13:22:59;6.43;;;4.45;;
35644;SDS011;21764;52.042;6.830;2023-11-22T13:39:45;7.90;;;5.05;;
35644;SDS011;21764;52.042;6.830;2023-11-22T13:45:44;7.72;;;4.68;;
35644;SDS011;21764;52.042;6.830;2023-11-22T17:58:58;54.00;;;27.38;;
35644;SDS011;21764;52.042;6.830;2023-11-22T18:04:06;58.38;;;27.92;;
35644;SDS011;21764;52.042;6.830;2023-11-22T18:09:18;62.47;;;28.15;;
35644;SDS011;21764;52.042;6.830;2023-11-22T18:14:21;56.70;;;29.08;;
35644;SDS011;21764;52.042;6.830;2023-11-22T18:19:56;62.90;;;29.50;;
35644;SDS011;21764;52.042;6.830;2023-11-22T18:25:26;61.33;;;30.05;;
35644;SDS011;21764;52.042;6.830;2023-11-22T18:30:48;58.72;;;30.65;;
35644;SDS011;21764;52.042;6.830;2023-11-22T18:36:20;67.25;;;31.65;;
35644;SDS011;21764;52.042;6.830;2023-11-22T18:41:50;60.95;;;31.70;;
35644;SDS011;21764;52.042;6.830;2023-11-22T18:47:17;63.50;;;31.38;;
35644;SDS011;21764;52.042;6.830;2023-11-22T18:52:59;66.45;;;32.80;;
35644;SDS011;21764;52.042;6.830;2023-11-22T18:58:56;63.58;;;31.88;;
35644;SDS011;21764;52.042;6.830;2023-11-22T19:04:44;68.65;;;30.45;;
35644;SDS011;21764;52.042;6.830;2023-11-22T19:10:10;69.10;;;31.52;;
35644;SDS011;21764;52.042;6.830;2023-11-22T19:15:45;69.90;;;30.70;;
35644;SDS011;21764;52.042;6.830;2023-11-22T19:21:01;67.95;;;31.85;;
35644;SDS011;21764;52.042;6.830;2023-11-22T19:32:46;57.35;;;27.60;;
35644;SDS011;21764;52.042;6.830;2023-11-22T19:38:28;55.33;;;27.15;;
35644;SDS011;21764;52.042;6.830;2023-11-22T19:43:35;60.97;;;28.88;;
35644;SDS011;21764;52.042;6.830;2023-11-22T19:59:40;50.20;;;25.98;;
35644;SDS011;21764;52.042;6.830;2023-11-22T20:04:53;56.97;;;26.38;;
35644;SDS011;21764;52.042;6.830;2023-11-22T20:10:22;55.25;;;24.70;;
35644;SDS011;21764;52.042;6.830;2023-11-22T20:15:33;51.95;;;25.38;;
35644;SDS011;21764;52.042;6.830;2023-11-22T20:20:47;56.90;;;25.52;;
35644;SDS011;21764;52.042;6.830;2023-11-22T20:26:00;57.58;;;26.35;;
35644;SDS011;21764;52.042;6.830;2023-11-22T20:31:25;51.88;;;26.05;;
35644;SDS011;21764;52.042;6.830;2023-11-22T20:36:45;52.55;;;26.27;;
35644;SDS011;21764;52.042;6.830;2023-11-22T20:41:50;55.55;;;26.35;;
35644;SDS011;21764;52.042;6.830;2023-11-22T20:46:53;51.85;;;25.83;;
35644;SDS011;21764;52.042;6.830;2023-11-22T20:52:05;72.68;;;36.28;;
35644;SDS011;21764;52.042;6.830;2023-11-22T20:57:10;53.27;;;26.03;;
35644;SDS011;21764;52.042;6.830;2023-11-22T21:03:05;60.03;;;27.33;;
35644;SDS011;21764;52.042;6.830;2023-11-22T21:08:56;49.92;;;23.50;;
35644;SDS011;21764;52.042;6.830;2023-11-22T21:14:29;46.22;;;22.80;;
35644;SDS011;21764;52.042;6.830;2023-11-22T21:20:09;51.30;;;23.73;;
35644;SDS011;21764;52.042;6.830;2023-11-22T21:25:50;48.25;;;23.08;;
35644;SDS011;21764;52.042;6.830;2023-11-22T21:37:02;53.22;;;26.35;;
35644;SDS011;21764;52.042;6.830;2023-11-22T21:42:29;47.22;;;24.08;;
35644;SDS011;21764;52.042;6.830;2023-11-22T21:53:01;51.65;;;24.65;;
35644;SDS011;21764;52.042;6.830;2023-11-22T21:58:11;55.00;;;25.48;;
35644;SDS011;21764;52.042;6.830;2023-11-22T22:03:25;59.40;;;25.70;;
35644;SDS011;21764;52.042;6.830;2023-11-22T22:08:30;48.38;;;24.65;;
35644;SDS011;21764;52.042;6.830;2023-11-22T22:14:14;49.80;;;24.42;;
35644;SDS011;21764;52.042;6.830;2023-11-22T22:30:49;48.45;;;25.88;;
35644;SDS011;21764;52.042;6.830;2023-11-22T22:36:36;52.08;;;25.00;;
35644;SDS011;21764;52.042;6.830;2023-11-22T22:41:58;49.80;;;25.25;;
35644;SDS011;21764;52.042;6.830;2023-11-22T22:47:38;59.45;;;26.52;;
35644;SDS011;21764;52.042;6.830;2023-11-22T22:53:12;57.00;;;26.50;;
35644;SDS011;21764;52.042;6.830;2023-11-22T22:58:45;55.83;;;27.45;;
35644;SDS011;21764;52.042;6.830;2023-11-22T23:04:06;52.25;;;25.52;;
35644;SDS011;21764;52.042;6.830;2023-11-22T23:15:15;61.55;;;28.58;;
35644;SDS011;21764;52.042;6.830;2023-11-22T23:20:25;56.90;;;27.98;;
35644;SDS011;21764;52.042;6.830;2023-11-22T23:25:28;56.42;;;29.40;;
35644;SDS011;21764;52.042;6.830;2023-11-22T23:31:09;60.60;;;28.17;;
35644;SDS011;21764;52.042;6.830;2023-11-22T23:36:44;56.08;;;28.83;;
35644;SDS011;21764;52.042;6.830;2023-11-22T23:42:05;56.63;;;26.65;;
35644;SDS011;21764;52.042;6.830;2023-11-22T23:47:25;75.72;;;33.45;;
35644;SDS011;21764;52.042;6.830;2023-11-22T23:52:34;65.95;;;30.45;;
35644;SDS011;21764;52.042;6.830;2023-11-22T23:58:10;70.53;;;32.05;;
